Time;durP1;ratioP1;P1;durP2;ratioP2;P2;SDS_P1;SDS_P2;PMS_P1;PMS_P2;Temp;Humidity;BMP_temperature;BMP_pressure;BME280_temperature;BME280_humidity;BME280_pressure;Samples;Min_cycle;Max_cycle;Signal;HPM_P1;HPM_P2
2022/02/09 00:02:35;;;;;;;4.83;4.33;;;;;;;6.71;100.00;153085.28;5075270;28;20447;-76
2022/02/09 00:05:29;;;;;;;6.43;4.63;;;;;;;6.70;100.00;153081.38;5078431;28;20451;-76
2022/02/09 00:08:07;;;;;;;6.63;5.33;;;;;;;6.71;100.00;153085.28;5077101;28;20440;-76
2022/02/09 00:10:47;;;;;;;7.73;4.80;;;;;;;6.73;100.00;153089.13;5076972;28;20459;-76
2022/02/09 00:13:40;;;;;;;7.83;4.53;;;;;;;6.71;100.00;153083.97;5077851;28;20450;-76
2022/02/09 00:16:37;;;;;;;7.50;5.17;;;;;;;6.70;100.00;153082.66;5064434;28;20462;-76
2022/02/09 00:19:20;;;;;;;7.73;5.40;;;;;;;6.69;100.00;153080.13;5062774;28;20431;-76
2022/02/09 00:22:12;;;;;;;5.43;4.90;;;;;;;6.67;100.00;153073.66;5079567;28;20475;-76
2022/02/09 00:25:18;;;;;;;6.10;4.50;;;;;;;6.68;100.00;153076.22;5052060;28;20447;-76
2022/02/09 00:34:04;;;;;;;7.40;5.00;;;;;;;6.69;100.00;153078.81;5042940;28;20447;-76
2022/02/09 00:40:01;;;;;;;7.00;4.67;;;;;;;6.70;100.00;153082.66;5038561;28;20454;-76
2022/02/09 00:43:07;;;;;;;5.57;4.50;;;;;;;6.68;100.00;153076.22;5064106;28;20439;-76
2022/02/09 01:38:37;;;;;;;4.90;3.90;;;;;;;6.65;100.00;153068.47;5031283;28;20450;-76
2022/02/09 01:55:51;;;;;;;4.53;3.80;;;;;;;6.64;100.00;153065.91;4970518;28;20445;-76
2022/02/09 01:58:26;;;;;;;3.80;3.10;;;;;;;6.66;100.00;153071.06;5028393;28;20988;-76
2022/02/09 02:01:03;;;;;;;3.77;3.37;;;;;;;6.66;100.00;153072.38;5050251;28;20834;-76
2022/02/09 02:03:39;;;;;;;4.80;3.30;;;;;;;6.67;100.00;153073.66;5050932;28;20949;-76
2022/02/09 02:06:17;;;;;;;5.47;3.97;;;;;;;6.66;100.00;153071.06;5082925;28;20439;-76
2022/02/09 02:08:53;;;;;;;4.53;3.40;;;;;;;6.66;100.00;153071.06;5048289;28;20821;-76
2022/02/09 02:11:32;;;;;;;3.53;3.20;;;;;;;6.64;100.00;153065.91;5077158;28;20447;-76
2022/02/09 02:14:19;;;;;;;5.00;2.90;;;;;;;6.63;100.00;153063.31;5050206;28;20435;-76
2022/02/09 02:17:02;;;;;;;4.20;3.70;;;;;;;6.65;100.00;153069.78;5068367;28;20442;-76
2022/02/09 02:19:43;;;;;;;5.87;3.80;;;;;;;6.62;100.00;153060.72;5067767;28;20447;-76
2022/02/09 02:22:39;;;;;;;3.90;3.27;;;;;;;6.61;100.00;153059.47;5051877;28;20462;-76
2022/02/09 02:31:41;;;;;;;4.43;3.13;;;;;;;6.58;100.00;153050.41;5060541;28;20802;-76
2022/02/09 02:37:48;;;;;;;5.17;3.47;;;;;;;6.58;99.98;153050.41;5085513;28;20462;-76
2022/02/09 02:40:50;;;;;;;5.50;3.07;;;;;;;6.53;99.99;153037.50;5049582;28;20467;-76
2022/02/09 02:44:16;;;;;;;4.80;3.40;;;;;;;6.56;100.00;153045.25;5074375;28;20446;-76
2022/02/09 02:59:05;;;;;;;5.23;3.10;;;;;;;6.51;99.53;153032.38;5048219;28;20438;-76
2022/02/09 03:10:51;;;;;;;4.83;3.70;;;;;;;6.53;100.00;153037.50;5079355;28;20446;-76
2022/02/09 03:13:32;;;;;;;3.37;2.70;;;;;;;6.53;99.44;153037.50;5077790;28;20451;-76
2022/02/09 03:16:11;;;;;;;8.03;3.23;;;;;;;6.55;100.00;153043.97;5079904;28;20451;-76
2022/02/09 03:19:07;;;;;;;3.00;2.37;;;;;;;6.58;100.00;153050.41;5078532;28;20833;-76
2022/02/09 03:21:49;;;;;;;4.23;2.87;;;;;;;6.54;99.32;153040.13;5081204;28;20466;-76
2022/02/09 03:24:37;;;;;;;3.10;2.00;;;;;;;6.51;99.03;153033.63;5083139;28;20439;-76
2022/02/09 03:27:29;;;;;;;3.67;2.90;;;;;;;6.51;100.00;153032.38;5062753;28;20900;-76
2022/02/09 03:45:29;;;;;;;2.70;1.77;;;;;;;6.57;100.00;153049.13;5034106;28;20797;-76
2022/02/09 03:48:22;;;;;;;3.40;2.43;;;;;;;6.59;100.00;153053.00;5048347;28;20842;-76
2022/02/09 03:51:19;;;;;;;3.80;2.60;;;;;;;6.59;100.00;153053.00;5047236;28;20450;-76
2022/02/09 03:54:04;;;;;;;2.90;2.10;;;;;;;6.57;100.00;153047.81;5081568;28;20447;-76
2022/02/09 03:56:55;;;;;;;3.30;2.30;;;;;;;6.58;100.00;153050.41;5030953;28;20450;-76
2022/02/09 03:59:33;;;;;;;4.20;2.10;;;;;;;6.57;100.00;153047.81;5066478;28;20455;-76
2022/02/09 04:02:11;;;;;;;3.73;2.10;;;;;;;6.56;100.00;153045.25;5077274;28;20475;-76
2022/02/09 04:04:54;;;;;;;3.53;2.43;;;;;;;6.56;100.00;153045.25;5060189;28;20446;-76
2022/02/09 04:07:29;;;;;;;2.57;2.27;;;;;;;6.53;100.00;153037.50;5078699;28;20838;-76
2022/02/09 04:10:09;;;;;;;5.77;2.30;;;;;;;6.52;100.00;153034.91;5024142;28;20454;-76
2022/02/09 04:12:53;;;;;;;3.60;2.50;;;;;;;6.53;100.00;153037.50;5046557;28;20481;-76
2022/02/09 04:15:45;;;;;;;3.20;2.37;;;;;;;6.51;99.76;153033.63;5078482;28;20439;-76
2022/02/09 04:18:39;;;;;;;3.50;2.33;;;;;;;6.53;100.00;153037.50;5077793;28;21049;-75
2022/02/09 04:38:43;;;;;;;3.53;2.30;;;;;;;6.56;100.00;153045.25;5027907;28;20451;-75
2022/02/09 04:41:33;;;;;;;3.37;2.30;;;;;;;6.56;100.00;153046.56;5049179;28;20487;-75
2022/02/09 04:50:07;;;;;;;3.07;2.27;;;;;;;6.56;99.87;153046.56;5064490;28;20428;-75
2022/02/09 04:53:17;;;;;;;2.70;1.87;;;;;;;6.58;100.00;153050.41;5076687;28;20891;-75
2022/02/09 04:55:59;;;;;;;2.77;2.20;;;;;;;6.59;100.00;153053.00;5063702;28;20549;-75
2022/02/09 04:58:45;;;;;;;2.20;1.73;;;;;;;6.59;100.00;153053.00;5047910;28;20538;-75
2022/02/09 05:01:46;;;;;;;2.53;2.23;;;;;;;6.58;100.00;153050.41;5046307;28;21016;-76
2022/02/09 05:04:33;;;;;;;4.97;2.27;;;;;;;6.59;100.00;153054.28;5078085;28;20450;-76
2022/02/09 05:21:55;;;;;;;3.60;3.03;;;;;;;6.49;100.00;153027.16;5023986;28;20829;-76
2022/02/09 05:24:43;;;;;;;3.60;2.50;;;;;;;6.46;100.00;153019.47;5045699;28;20946;-76
2022/02/09 05:27:22;;;;;;;6.07;3.17;;;;;;;6.43;99.78;153011.72;5074176;28;20439;-76
2022/02/09 05:30:03;;;;;;;6.70;2.77;;;;;;;6.43;99.47;153011.72;5044567;28;20525;-76
2022/02/09 05:32:38;;;;;;;6.40;2.60;;;;;;;6.39;99.70;153002.66;5073417;28;20440;-76
2022/02/09 05:35:15;;;;;;;7.17;3.00;;;;;;;6.38;98.99;152998.81;5045056;28;20447;-76
2022/02/09 05:37:52;;;;;;;3.63;2.83;;;;;;;6.36;98.18;152994.91;5046083;28;20788;-76
2022/02/09 05:40:29;;;;;;;5.43;3.40;;;;;;;6.35;98.76;152991.06;5030858;28;20462;-76
2022/02/09 05:43:05;;;;;;;4.43;2.80;;;;;;;6.37;100.00;152996.22;5025709;28;20462;-76
2022/02/09 05:46:01;;;;;;;4.20;3.33;;;;;;;6.35;99.01;152991.06;5044756;28;20470;-76
2022/02/09 05:51:49;;;;;;;3.43;2.87;;;;;;;6.36;99.48;152993.63;5006131;28;20970;-76
2022/02/09 05:54:45;;;;;;;3.87;2.87;;;;;;;6.36;100.00;152993.63;5051230;28;21001;-76
2022/02/09 05:57:28;;;;;;;4.47;2.50;;;;;;;6.36;98.73;152993.63;5029894;28;20447;-76
2022/02/09 06:00:05;;;;;;;5.20;2.40;;;;;;;6.41;100.00;153007.81;5061846;28;20474;-76
2022/02/09 06:02:42;;;;;;;4.10;2.30;;;;;;;6.45;100.00;153016.88;5061652;28;20458;-76
2022/02/09 06:05:17;;;;;;;4.60;2.60;;;;;;;6.45;100.00;153016.88;5043789;28;20820;-76
2022/02/09 06:07:53;;;;;;;5.03;2.80;;;;;;;6.49;99.95;153027.16;5044795;28;20450;-76
2022/02/09 06:10:32;;;;;;;5.53;2.80;;;;;;;6.42;98.81;153010.41;5039398;28;20871;-76
2022/02/09 06:13:17;;;;;;;2.70;2.20;;;;;;;6.41;100.00;153006.53;5043525;28;20448;-76
2022/02/09 06:16:12;;;;;;;6.07;3.60;;;;;;;6.42;99.90;153009.13;5043945;28;20451;-76
2022/02/09 06:21:42;;;;;;;3.80;2.93;;;;;;;6.35;99.82;152991.06;5078036;28;20463;-76
2022/02/09 06:24:17;;;;;;;7.70;3.70;;;;;;;6.29;99.79;152976.88;5047745;28;20447;-76
2022/02/09 06:26:53;;;;;;;4.57;4.17;;;;;;;6.30;99.20;152979.41;5062914;28;20458;-76
2022/02/09 06:29:29;;;;;;;6.30;3.23;;;;;;;6.26;98.35;152967.81;5029612;28;20482;-76
2022/02/09 06:32:09;;;;;;;7.97;3.90;;;;;;;6.25;97.83;152966.53;5045140;28;20438;-76
2022/02/09 06:34:47;;;;;;;5.57;3.60;;;;;;;6.28;99.20;152972.97;5046029;28;20990;-76
2022/02/09 06:37:26;;;;;;;5.00;3.37;;;;;;;6.26;98.90;152969.13;5043639;28;20566;-76
2022/02/09 06:40:02;;;;;;;3.70;3.30;;;;;;;6.29;100.00;152976.88;5050450;28;20450;-76
2022/02/09 06:42:39;;;;;;;5.77;3.80;;;;;;;6.28;100.00;152974.28;5034607;28;20467;-76
2022/02/09 06:45:19;;;;;;;4.93;3.57;;;;;;;6.28;100.00;152972.97;5032575;28;20451;-76
2022/02/09 06:47:55;;;;;;;4.17;3.43;;;;;;;6.25;100.00;152966.53;5065035;28;20561;-76
2022/02/09 06:50:36;;;;;;;6.23;3.67;;;;;;;6.28;100.00;152972.97;5049164;28;20466;-76
2022/02/09 06:53:26;;;;;;;6.33;3.40;;;;;;;6.23;99.91;152960.06;5047945;28;20466;-76
2022/02/09 06:56:03;;;;;;;4.23;3.70;;;;;;;6.23;100.00;152960.06;5051628;28;20439;-75
2022/02/09 06:58:57;;;;;;;6.10;4.37;;;;;;;6.15;98.41;152940.72;5033296;28;20446;-76
2022/02/09 07:01:33;;;;;;;4.67;3.60;;;;;;;6.10;100.00;152927.84;5074175;28;20487;-76
2022/02/09 07:04:08;;;;;;;6.53;3.97;;;;;;;6.03;100.00;152911.09;5029206;28;20806;-76
2022/02/09 07:06:45;;;;;;;6.20;4.53;;;;;;;5.99;99.25;152899.44;5075315;28;20446;-76
2022/02/09 07:09:21;;;;;;;7.00;4.07;;;;;;;6.00;99.78;152903.34;5076472;28;20434;-76
2022/02/09 07:12:05;;;;;;;5.97;3.93;;;;;;;5.93;97.10;152884.00;5033020;28;20929;-77
2022/02/09 07:14:40;;;;;;;4.80;4.40;;;;;;;5.82;97.67;152855.56;5044997;28;20450;-77
2022/02/09 07:17:16;;;;;;;10.00;4.53;;;;;;;5.80;96.10;152851.66;5072776;28;20459;-77
2022/02/09 07:20:03;;;;;;;5.43;4.37;;;;;;;6.05;99.00;152914.94;5028209;28;20845;-76
2022/02/09 07:22:41;;;;;;;4.93;3.87;;;;;;;6.34;96.20;152989.78;5064094;28;20459;-75
2022/02/09 07:25:19;;;;;;;11.20;4.67;;;;;;;6.58;92.96;153050.41;5027672;28;20445;-76
2022/02/09 07:27:55;;;;;;;7.80;4.27;;;;;;;6.81;92.40;153109.78;5073298;28;20480;-77
2022/02/09 07:30:30;;;;;;;7.00;4.50;;;;;;;6.96;91.52;153148.53;5047307;28;20458;-76
2022/02/09 07:33:08;;;;;;;5.37;3.40;;;;;;;7.02;91.10;153162.69;5047143;28;20438;-77
2022/02/09 07:35:44;;;;;;;7.93;5.33;;;;;;;7.10;89.76;153184.66;5061656;28;21012;-77
2022/02/09 07:38:21;;;;;;;5.03;4.40;;;;;;;7.20;88.22;153210.47;5033400;28;20447;-77
2022/02/09 07:40:59;;;;;;;6.63;4.80;;;;;;;7.41;88.77;153263.44;5065069;28;20494;-77
2022/02/09 07:43:45;;;;;;;6.37;4.70;;;;;;;7.59;87.43;153308.63;5049864;28;20516;-77
2022/02/09 07:46:37;;;;;;;5.50;4.50;;;;;;;7.66;88.18;153326.72;5042579;28;20451;-77
2022/02/09 07:49:24;;;;;;;4.40;4.00;;;;;;;7.79;84.68;153360.28;5030775;28;20806;-77
2022/02/09 07:52:07;;;;;;;6.43;4.50;;;;;;;7.94;83.67;153399.09;5030664;28;20957;-78
2022/02/09 07:54:44;;;;;;;9.73;5.30;;;;;;;7.84;83.95;153374.50;5061140;28;20845;-78
2022/02/09 07:57:19;;;;;;;5.27;4.77;;;;;;;7.82;83.41;153368.03;5031316;28;20466;-77
2022/02/09 07:59:55;;;;;;;7.43;5.20;;;;;;;7.84;86.20;153373.19;5048112;28;20439;-78
2022/02/09 08:02:31;;;;;;;8.63;5.10;;;;;;;7.90;85.38;153390.03;5013888;28;20470;-78
2022/02/09 08:05:07;;;;;;;7.47;4.90;;;;;;;7.94;82.86;153399.09;5044459;28;20461;-77
2022/02/09 08:07:43;;;;;;;6.60;4.87;;;;;;;7.94;84.63;153399.09;5074554;28;20447;-77
2022/02/09 08:10:26;;;;;;;5.90;4.67;;;;;;;7.80;85.02;153362.88;5074702;28;20454;-77
2022/02/09 08:27:38;;;;;;;5.00;3.90;;;;;;;7.94;86.07;153400.34;5023290;28;20447;-77
2022/02/09 08:30:42;;;;;;;7.17;4.20;;;;;;;7.87;84.89;153382.25;5077348;28;20712;-77
2022/02/09 08:33:18;;;;;;;5.20;3.97;;;;;;;7.88;83.90;153384.88;5024708;28;20531;-77
2022/02/09 08:35:55;;;;;;;4.40;4.00;;;;;;;7.86;85.76;153378.41;5052328;28;20491;-77
2022/02/09 08:38:31;;;;;;;8.97;5.57;;;;;;;7.97;84.99;153408.09;5073165;28;20455;-77
2022/02/09 08:41:06;;;;;;;5.83;4.17;;;;;;;8.00;84.21;153414.53;5035718;28;20455;-77
2022/02/09 08:43:43;;;;;;;6.10;3.53;;;;;;;7.99;83.50;153412.00;5054072;28;20966;-77
2022/02/09 08:46:20;;;;;;;6.17;4.10;;;;;;;8.02;84.62;153418.44;5073010;28;20597;-77
2022/02/09 08:48:55;;;;;;;4.57;3.47;;;;;;;8.03;86.73;153421.00;5028321;28;20427;-77
2022/02/09 08:51:33;;;;;;;4.33;3.93;;;;;;;8.05;86.48;153427.47;5030502;28;20455;-77
2022/02/09 08:54:10;;;;;;;5.37;4.17;;;;;;;8.16;87.21;153454.59;5028495;28;20454;-77
2022/02/09 08:56:45;;;;;;;7.50;4.90;;;;;;;8.16;85.21;153454.59;5044755;28;20443;-77
2022/02/09 08:59:27;;;;;;;6.70;3.83;;;;;;;8.19;84.85;153463.66;5047948;28;20529;-77
2022/02/09 09:02:04;;;;;;;6.10;3.20;;;;;;;8.20;86.59;153466.28;5045782;28;20726;-77
2022/02/09 09:04:46;;;;;;;7.23;3.97;;;;;;;8.50;82.66;153543.84;5045536;28;20447;-77
2022/02/09 09:07:25;;;;;;;4.73;3.23;;;;;;;8.49;84.32;153541.28;5073124;28;20452;-77
2022/02/09 09:10:07;;;;;;;5.10;3.60;;;;;;;8.52;84.51;153549.00;5077800;28;20475;-77
2022/02/09 09:19:04;;;;;;;7.40;3.17;;;;;;;8.65;80.76;153580.03;5075998;28;20819;-77
2022/02/09 10:05:51;;;;;;;4.90;3.40;;;;;;;8.80;78.41;153618.81;5074220;28;20450;-77
2022/02/09 10:35:26;;;;;;;3.60;2.53;;;;;;;8.79;80.43;153616.25;5023827;28;20446;-77
2022/02/09 10:38:20;;;;;;;4.77;3.03;;;;;;;8.80;79.28;153620.13;5040546;28;20544;-77
2022/02/09 10:41:10;;;;;;;4.00;3.60;;;;;;;8.80;79.11;153618.81;5046433;28;20859;-77
2022/02/09 10:43:46;;;;;;;3.80;3.40;;;;;;;8.83;78.64;153627.88;5033981;28;20554;-77
2022/02/09 10:46:22;;;;;;;7.63;3.63;;;;;;;9.01;79.19;153674.44;5034258;28;20537;-77
2022/02/09 10:49:00;;;;;;;5.63;3.27;;;;;;;8.95;78.52;153657.59;5076784;28;20473;-77
2022/02/09 10:51:41;;;;;;;3.83;3.27;;;;;;;8.97;77.11;153662.81;5029328;28;20450;-77
2022/02/09 10:54:18;;;;;;;4.70;3.20;;;;;;;9.36;75.32;153763.66;5078466;28;20431;-77
2022/02/09 10:56:57;;;;;;;5.77;3.53;;;;;;;9.36;75.20;153762.38;5047616;28;20450;-77
2022/02/09 10:59:34;;;;;;;4.40;2.83;;;;;;;9.45;73.79;153785.69;5076960;28;20450;-77
2022/02/09 11:02:12;;;;;;;2.73;2.10;;;;;;;9.33;75.69;153754.59;5078745;28;20466;-77
2022/02/09 11:04:49;;;;;;;4.13;2.40;;;;;;;9.21;76.63;153724.88;5033290;28;20452;-77
2022/02/09 11:07:24;;;;;;;4.50;3.30;;;;;;;9.22;75.00;153727.44;5031920;28;20459;-77
2022/02/09 11:10:00;;;;;;;3.70;2.87;;;;;;;9.23;75.57;153730.03;5033354;28;20459;-77
2022/02/09 11:12:37;;;;;;;4.03;2.60;;;;;;;9.30;74.74;153746.84;5034916;28;20836;-77
2022/02/09 11:15:17;;;;;;;4.47;3.07;;;;;;;9.37;74.50;153766.22;5047623;28;20532;-77
2022/02/09 11:17:53;;;;;;;3.20;2.83;;;;;;;9.46;73.99;153789.53;5078622;28;20447;-77
2022/02/09 11:20:31;;;;;;;5.40;2.97;;;;;;;9.70;73.83;153851.63;5031563;28;20541;-77
2022/02/09 11:23:07;;;;;;;3.53;3.00;;;;;;;9.58;77.86;153820.56;5046180;28;20458;-77
2022/02/09 11:25:53;;;;;;;3.17;2.20;;;;;;;9.63;74.33;153833.53;5047197;28;20490;-77
2022/02/09 11:28:36;;;;;;;2.97;2.30;;;;;;;9.58;73.87;153820.56;5077155;28;20953;-77
2022/02/09 11:31:16;;;;;;;3.43;2.57;;;;;;;9.71;73.43;153854.25;5043152;28;20555;-77
2022/02/09 11:34:03;;;;;;;5.97;2.53;;;;;;;9.62;73.82;153830.94;5064292;28;20457;-77
2022/02/09 11:36:53;;;;;;;3.47;2.50;;;;;;;9.50;76.03;153799.91;5063181;28;20486;-77
2022/02/09 11:39:43;;;;;;;4.80;2.80;;;;;;;9.58;74.41;153820.56;5047692;28;20452;-77
2022/02/09 11:42:26;;;;;;;3.70;3.20;;;;;;;9.73;73.95;153859.41;5045961;28;20800;-77
2022/02/09 11:45:20;;;;;;;5.47;2.90;;;;;;;9.84;73.37;153886.59;5046368;28;20443;-77
2022/02/09 11:48:13;;;;;;;2.67;2.43;;;;;;;9.97;73.66;153918.91;5031867;28;20451;-77
2022/02/09 11:51:07;;;;;;;6.43;3.07;;;;;;;10.00;72.26;153926.69;5060591;28;20865;-77
2022/02/09 11:57:06;;;;;;;3.33;2.10;;;;;;;10.08;72.11;153948.72;5064051;28;20447;-77
2022/02/09 12:00:06;;;;;;;2.00;1.80;;;;;;;9.98;73.74;153921.53;5058848;28;20526;-77
2022/02/09 12:08:54;;;;;;;2.80;2.10;;;;;;;10.13;72.39;153960.41;5035364;28;20534;-77
2022/02/09 12:11:58;;;;;;;3.53;1.70;;;;;;;10.26;72.14;153994.03;5076861;28;20486;-77
2022/02/09 12:14:49;;;;;;;2.43;1.50;;;;;;;10.30;72.34;154004.38;5074131;28;20829;-77
2022/02/09 12:17:33;;;;;;;4.53;1.70;;;;;;;10.40;72.32;154030.31;5047532;28;20435;-77
2022/02/09 12:20:19;;;;;;;2.67;1.73;;;;;;;10.47;71.53;154048.41;5061706;28;20442;-77
2022/02/09 12:23:09;;;;;;;1.83;1.40;;;;;;;10.50;72.16;154056.19;5075726;28;20471;-77
2022/02/09 12:25:45;;;;;;;3.10;1.60;;;;;;;10.45;72.14;154043.25;5079758;28;20455;-77
2022/02/09 12:28:22;;;;;;;2.40;1.50;;;;;;;10.50;71.64;154054.88;5078965;28;20470;-77
2022/02/09 12:31:06;;;;;;;2.27;1.47;;;;;;;10.55;72.05;154069.13;5044152;28;20538;-77
2022/02/09 12:33:43;;;;;;;2.00;1.53;;;;;;;10.59;71.94;154079.47;5060674;28;20447;-77
2022/02/09 12:36:21;;;;;;;2.03;1.30;;;;;;;10.53;72.63;154062.66;5045399;28;20483;-77
2022/02/09 12:38:59;;;;;;;2.10;1.60;;;;;;;10.44;74.79;154039.34;5041734;28;20793;-77
2022/02/09 12:41:34;;;;;;;2.33;1.90;;;;;;;10.37;73.87;154022.53;5044838;28;20466;-77
2022/02/09 12:44:10;;;;;;;2.70;2.27;;;;;;;10.70;73.33;154107.97;5045085;28;20454;-77
2022/02/09 12:46:45;;;;;;;3.80;2.27;;;;;;;10.67;73.44;154098.94;5060233;28;20461;-77
2022/02/09 12:49:22;;;;;;;5.93;2.03;;;;;;;10.69;72.76;154105.41;5044955;28;20438;-77
2022/02/09 12:51:59;;;;;;;2.70;1.80;;;;;;;10.68;73.13;154101.50;5042605;28;20450;-77
2022/02/09 12:54:35;;;;;;;2.93;2.30;;;;;;;10.91;72.66;154162.34;5076658;28;20450;-77
2022/02/09 12:57:13;;;;;;;2.63;2.43;;;;;;;10.92;72.11;154164.97;5029927;28;20521;-77
2022/02/09 12:59:48;;;;;;;2.40;2.00;;;;;;;11.11;72.30;154211.59;5041304;28;20435;-77
2022/02/09 13:02:24;;;;;;;3.97;1.80;;;;;;;11.00;72.34;154185.69;5046263;28;21183;-77
2022/02/09 13:05:01;;;;;;;5.53;2.40;;;;;;;11.05;72.12;154196.03;5059001;28;20466;-77
2022/02/09 13:07:38;;;;;;;3.43;2.37;;;;;;;11.12;72.20;154215.44;5062649;28;20449;-77
2022/02/09 13:10:22;;;;;;;5.90;2.50;;;;;;;11.10;72.56;154208.97;5078720;28;20848;-77
2022/02/09 13:13:04;;;;;;;3.93;1.90;;;;;;;11.16;71.21;154224.53;5075694;28;20466;-77
2022/02/09 13:15:47;;;;;;;3.97;2.03;;;;;;;11.05;71.29;154196.03;5079027;28;20467;-77
2022/02/09 13:18:35;;;;;;;2.40;2.00;;;;;;;11.14;71.70;154219.38;5041021;28;20439;-77
2022/02/09 14:11:54;;;;;;;2.20;1.00;;;;;;;11.67;69.98;154356.72;5060213;28;20488;-77
2022/02/09 14:17:49;;;;;;;1.70;1.17;;;;;;;11.43;70.00;154294.50;5059632;28;20444;-77
2022/02/09 14:23:58;;;;;;;2.83;1.37;;;;;;;11.78;68.75;154383.97;5059791;28;20978;-78
2022/02/09 14:55:44;;;;;;;3.33;1.70;;;;;;;11.29;69.92;154258.22;5046666;28;20451;-77
2022/02/09 14:58:25;;;;;;;4.63;1.90;;;;;;;11.28;69.96;154256.91;5074940;28;20878;-77
2022/02/09 15:01:06;;;;;;;4.50;1.90;;;;;;;11.38;68.71;154282.84;5045122;28;20949;-77
2022/02/09 15:04:04;;;;;;;3.10;1.50;;;;;;;11.47;68.59;154304.84;5076042;28;20850;-77
2022/02/09 15:09:37;;;;;;;5.10;1.87;;;;;;;11.26;69.48;154251.75;5062940;28;20435;-77
2022/02/09 15:12:21;;;;;;;3.40;1.60;;;;;;;11.16;70.40;154224.53;5080357;28;20474;-77
2022/02/09 15:15:12;;;;;;;2.50;1.90;;;;;;;11.13;70.76;154218.06;5077720;28;20438;-77
2022/02/09 15:18:15;;;;;;;2.50;1.57;;;;;;;11.18;70.75;154231.00;5078935;28;20455;-77
2022/02/09 15:21:01;;;;;;;2.07;1.70;;;;;;;11.32;68.93;154266.00;5043177;28;20458;-77
2022/02/09 15:23:37;;;;;;;3.53;2.10;;;;;;;11.31;69.30;154263.38;5048282;28;20819;-77
2022/02/09 15:26:14;;;;;;;2.90;1.50;;;;;;;11.33;69.31;154268.59;5046207;28;20443;-77
2022/02/09 15:28:51;;;;;;;3.03;1.50;;;;;;;11.36;69.43;154277.63;5047729;28;20473;-77
2022/02/09 15:31:34;;;;;;;3.83;1.80;;;;;;;11.35;69.07;154273.78;5045643;28;20450;-77
2022/02/09 15:34:16;;;;;;;2.50;1.20;;;;;;;11.27;70.16;154253.03;5031078;28;20443;-77
2022/02/09 15:37:08;;;;;;;3.87;2.13;;;;;;;11.21;69.96;154237.47;5047699;28;20468;-77
2022/02/09 15:39:46;;;;;;;3.83;2.10;;;;;;;11.17;70.04;154227.16;5049422;28;21015;-77
2022/02/09 15:57:28;;;;;;;3.10;2.33;;;;;;;11.10;70.69;154210.28;5042317;28;20443;-77
2022/02/09 16:06:10;;;;;;;2.63;1.93;;;;;;;10.82;72.33;154139.06;4999155;28;20447;-77
2022/02/09 16:09:09;;;;;;;2.57;1.93;;;;;;;10.74;72.92;154118.34;5079750;28;20949;-77
2022/02/09 16:23:33;;;;;;;2.60;2.13;;;;;;;10.60;73.58;154080.78;5030054;28;20478;-77
2022/02/09 16:37:50;;;;;;;2.80;2.17;;;;;;;10.26;76.02;153994.03;5076442;28;20436;-77
2022/02/09 16:46:17;;;;;;;6.57;2.67;;;;;;;10.22;75.55;153983.66;5023215;28;20439;-77
2022/02/09 16:49:00;;;;;;;4.63;2.40;;;;;;;10.17;77.15;153970.72;5075458;28;20451;-77
2022/02/09 16:51:45;;;;;;;2.50;2.17;;;;;;;10.09;77.05;153949.97;5073315;28;20458;-77
2022/02/09 16:54:33;;;;;;;6.40;3.03;;;;;;;10.10;76.82;153952.56;5045126;28;20439;-77
2022/02/09 17:08:23;;;;;;;2.97;2.40;;;;;;;10.02;79.00;153933.16;5045581;28;20941;-77
2022/02/09 17:20:31;;;;;;;3.17;2.73;;;;;;;9.37;83.98;153766.22;5074231;28;20443;-77
2022/02/09 17:23:07;;;;;;;3.20;2.47;;;;;;;9.30;84.19;153748.13;5076870;28;20925;-77
2022/02/09 17:25:45;;;;;;;3.40;2.90;;;;;;;9.23;84.49;153728.75;5030786;28;20559;-77
2022/02/09 17:28:21;;;;;;;4.20;2.40;;;;;;;9.16;84.26;153713.22;5042423;28;20469;-77
2022/02/09 17:31:07;;;;;;;5.53;3.97;;;;;;;9.10;84.49;153697.72;5030582;28;20447;-77
2022/02/09 17:34:02;;;;;;;3.20;2.57;;;;;;;9.11;84.32;153698.97;5074220;28;20446;-77
2022/02/09 17:36:46;;;;;;;5.50;3.00;;;;;;;9.05;84.80;153683.50;5075465;28;20475;-77
2022/02/09 17:53:22;;;;;;;5.00;2.77;;;;;;;9.00;86.09;153670.56;5076605;28;20451;-77
2022/02/09 17:54:00;;;;;;;3.33;2.50;;;;;;;8.73;85.60;153600.72;5077434;28;20443;-77
2022/02/09 17:56:47;;;;;;;4.57;3.23;;;;;;;8.67;85.97;153585.22;5057146;28;20455;-77
2022/02/09 17:59:25;;;;;;;5.57;3.37;;;;;;;8.58;86.07;153563.22;5030453;28;20479;-77
2022/02/09 18:02:01;;;;;;;3.50;2.70;;;;;;;8.49;87.05;153541.28;5024603;28;20458;-77
2022/02/09 18:04:43;;;;;;;5.20;3.40;;;;;;;8.42;86.69;153523.16;5045103;28;20462;-77
2022/02/09 18:07:20;;;;;;;3.63;2.93;;;;;;;8.34;88.38;153502.47;5043021;28;20455;-77
2022/02/09 18:10:05;;;;;;;3.50;2.67;;;;;;;8.37;88.46;153510.22;5036415;28;20452;-77
2022/02/09 18:12:56;;;;;;;4.13;3.00;;;;;;;8.39;89.75;153514.13;5063587;28;20809;-77
2022/02/09 18:15:59;;;;;;;4.10;3.17;;;;;;;8.30;88.46;153492.16;5060306;28;20447;-77
2022/02/09 18:30:20;;;;;;;3.60;3.00;;;;;;;8.17;90.13;153457.19;5030198;28;20442;-77
2022/02/09 18:33:11;;;;;;;6.90;4.00;;;;;;;8.11;90.15;153441.69;5074030;28;20656;-77
2022/02/09 18:39:23;;;;;;;3.60;3.23;;;;;;;7.88;91.56;153383.56;5081938;28;20451;-77
2022/02/09 18:42:47;;;;;;;5.40;4.30;;;;;;;7.77;94.84;153355.13;5075329;28;20949;-77
2022/02/09 18:45:32;;;;;;;9.93;4.67;;;;;;;7.71;93.77;153339.63;5078169;28;20462;-77
2022/02/09 18:48:33;;;;;;;7.83;6.33;;;;;;;7.79;94.88;153360.28;5076826;28;20470;-77
2022/02/09 18:57:31;;;;;;;6.10;4.30;;;;;;;7.66;92.43;153328.00;5082727;28;20443;-77
2022/02/09 19:00:14;;;;;;;6.07;4.20;;;;;;;7.62;91.28;153316.41;5049212;28;20559;-77
2022/02/09 19:02:59;;;;;;;4.97;4.47;;;;;;;7.58;91.17;153307.34;5044672;28;20505;-77
2022/02/09 19:05:41;;;;;;;8.50;6.83;;;;;;;7.54;91.70;153295.72;5077944;28;20977;-77
2022/02/09 19:08:35;;;;;;;11.60;8.17;;;;;;;7.51;92.64;153289.28;5046889;28;20435;-77
2022/02/09 19:14:17;;;;;;;7.60;5.73;;;;;;;7.49;92.61;153284.13;5075136;28;20454;-76
2022/02/09 19:17:00;;;;;;;5.50;4.30;;;;;;;7.46;92.43;153275.06;5079014;28;20464;-77
2022/02/09 19:19:58;;;;;;;5.33;3.60;;;;;;;7.40;92.64;153259.53;5072924;28;20786;-76
2022/02/09 19:29:22;;;;;;;5.77;4.03;;;;;;;7.23;93.19;153218.22;5047595;28;20519;-76
2022/02/09 19:31:44;;;;;;;6.07;4.13;;;;;;;7.16;93.48;153198.84;5081872;28;20513;-76
2022/02/09 19:46:06;;;;;;;5.50;4.27;;;;;;;7.00;93.72;153157.53;5038385;28;20529;-76
2022/02/09 19:48:45;;;;;;;8.10;4.90;;;;;;;7.00;95.10;153158.84;5043848;28;20447;-76
2022/02/09 19:51:35;;;;;;;9.17;4.53;;;;;;;6.95;94.36;153145.94;5073958;28;20927;-76
2022/02/09 19:54:15;;;;;;;6.33;4.27;;;;;;;6.93;93.53;153140.78;5048838;28;20465;-77
2022/02/09 19:57:00;;;;;;;7.53;4.20;;;;;;;6.87;93.51;153125.28;5033829;28;20442;-77
2022/02/09 19:59:37;;;;;;;6.03;4.20;;;;;;;6.84;93.36;153116.22;5059712;28;20442;-76
2022/02/09 20:02:14;;;;;;;4.70;3.87;;;;;;;6.81;92.92;153109.78;5061144;28;20802;-76
2022/02/09 20:04:55;;;;;;;6.03;4.50;;;;;;;6.80;94.11;153105.91;5074659;28;20466;-76
2022/02/09 20:07:30;;;;;;;5.90;4.83;;;;;;;6.77;94.15;153099.47;5078951;28;20840;-76
2022/02/09 20:10:07;;;;;;;5.67;4.67;;;;;;;6.71;93.42;153083.97;5075734;28;20450;-76
2022/02/09 20:12:44;;;;;;;5.77;5.17;;;;;;;6.68;92.99;153076.22;5047514;28;21012;-76
2022/02/09 20:15:19;;;;;;;7.37;5.57;;;;;;;6.66;93.89;153072.38;5046658;28;20439;-75
2022/02/09 20:17:55;;;;;;;5.40;4.70;;;;;;;6.62;94.04;153060.72;5030806;28;20446;-77
2022/02/09 20:20:36;;;;;;;6.57;4.47;;;;;;;6.61;94.29;153058.16;5075796;28;20529;-77
2022/02/09 20:23:12;;;;;;;8.23;4.60;;;;;;;6.59;94.54;153053.00;5064195;28;20434;-76
2022/02/09 20:25:48;;;;;;;4.43;4.03;;;;;;;6.58;94.55;153050.41;5045623;28;20470;-76
2022/02/09 20:28:25;;;;;;;4.90;4.20;;;;;;;6.61;93.14;153058.16;5032640;28;20458;-76
2022/02/09 20:31:05;;;;;;;5.50;3.70;;;;;;;6.61;90.66;153058.16;5045100;28;20446;-76
2022/02/09 20:33:45;;;;;;;4.40;4.00;;;;;;;6.62;91.02;153060.72;5033795;28;20439;-76
2022/02/09 20:36:21;;;;;;;5.67;4.30;;;;;;;6.64;89.71;153067.22;5072333;28;20474;-76
2022/02/09 20:38:59;;;;;;;4.70;3.80;;;;;;;6.60;87.11;153055.56;5046940;28;20869;-76
2022/02/09 20:41:35;;;;;;;5.63;4.30;;;;;;;6.63;87.40;153063.31;5026790;28;20550;-76
2022/02/09 20:44:21;;;;;;;4.93;4.10;;;;;;;6.64;89.81;153067.22;5048081;28;20434;-76